createdAt,value
2018-05-16T00:00:39.671Z,7.78
2018-05-16T00:03:06.744Z,7.65
2018-05-16T00:05:33.082Z,8.60
2018-05-16T00:07:59.392Z,10.63
2018-05-16T00:10:26.452Z,8.65
2018-05-16T00:12:52.771Z,6.95
2018-05-16T00:15:22.895Z,9.25
2018-05-16T00:17:49.183Z,11.40
2018-05-16T00:20:15.538Z,7.32
2018-05-16T00:22:42.596Z,8.15
2018-05-16T00:25:08.980Z,10.23
2018-05-16T00:27:35.312Z,8.98
2018-05-16T00:30:01.628Z,8.85
2018-05-16T00:32:27.948Z,8.65
2018-05-16T00:34:54.264Z,11.27
2018-05-16T00:37:20.645Z,11.50
2018-05-16T00:39:46.973Z,10.30
2018-05-16T00:42:13.344Z,13.02
2018-05-16T00:44:39.669Z,13.02
2018-05-16T00:47:06.025Z,11.35
2018-05-16T00:49:32.307Z,11.25
2018-05-16T00:51:59.380Z,9.55
2018-05-16T00:54:25.712Z,12.65
2018-05-16T00:56:52.051Z,11.02
2018-05-16T00:59:18.417Z,10.18
2018-05-16T01:01:44.831Z,15.75
2018-05-16T01:04:11.121Z,10.18
2018-05-16T01:06:37.480Z,9.20
2018-05-16T01:09:04.812Z,11.82
2018-05-16T01:11:31.190Z,13.80
2018-05-16T01:13:57.569Z,15.52
2018-05-16T01:16:23.939Z,13.95
2018-05-16T01:18:50.262Z,11.35
2018-05-16T01:21:16.604Z,13.32
2018-05-16T01:23:42.963Z,9.15
2018-05-16T01:26:10.067Z,11.25
2018-05-16T01:28:36.411Z,10.30
2018-05-16T01:31:02.751Z,9.27
2018-05-16T01:33:29.088Z,10.68
2018-05-16T01:35:55.401Z,18.17
2018-05-16T01:38:21.756Z,17.00
2018-05-16T01:43:42.360Z,11.68
2018-05-16T01:46:09.447Z,14.85
2018-05-16T01:48:35.795Z,11.10
2018-05-16T01:51:02.159Z,13.43
2018-05-16T01:53:28.521Z,12.82
2018-05-16T01:55:54.866Z,10.85
2018-05-16T01:58:21.192Z,14.25
2018-05-16T02:00:47.544Z,10.77
2018-05-16T02:03:13.858Z,13.38
2018-05-16T02:05:40.192Z,15.45
2018-05-16T02:08:06.507Z,13.70
2018-05-16T02:10:32.863Z,13.45
2018-05-16T02:12:59.164Z,14.18
2018-05-16T02:15:25.520Z,16.17
2018-05-16T02:17:51.850Z,13.05
2018-05-16T02:20:18.192Z,15.32
2018-05-16T02:22:45.068Z,23.38
2018-05-16T02:25:12.167Z,16.50
2018-05-16T02:27:38.506Z,15.93
2018-05-16T02:30:05.379Z,16.67
2018-05-16T02:32:31.823Z,17.87
2018-05-16T02:34:58.908Z,12.90
2018-05-16T02:37:25.267Z,14.15
2018-05-16T02:39:51.603Z,12.15
2018-05-16T02:42:17.960Z,14.18
2018-05-16T02:44:45.027Z,14.68
2018-05-16T02:47:11.412Z,17.98
2018-05-16T02:49:37.708Z,14.25
2018-05-16T02:52:04.122Z,11.23
2018-05-16T02:54:30.495Z,13.55
2018-05-16T02:56:57.526Z,13.77
2018-05-16T02:59:23.843Z,14.20
2018-05-16T03:01:50.191Z,14.10
2018-05-16T03:04:16.545Z,16.30
2018-05-16T03:06:42.870Z,17.05
2018-05-16T03:09:09.209Z,18.45
2018-05-16T03:11:37.251Z,15.98
2018-05-16T03:14:03.707Z,19.90
2018-05-16T03:16:30.019Z,22.10
2018-05-16T03:18:56.380Z,16.77
2018-05-16T03:21:23.438Z,24.15
2018-05-16T03:23:50.487Z,16.98
2018-05-16T03:26:17.533Z,14.15
2018-05-16T03:28:43.852Z,18.92
2018-05-16T03:31:10.964Z,19.90
2018-05-16T03:33:37.284Z,19.35
2018-05-16T03:36:03.616Z,20.23
2018-05-16T03:38:29.906Z,16.55
2018-05-16T03:40:56.226Z,18.00
2018-05-16T03:43:23.289Z,22.08
2018-05-16T03:45:49.607Z,18.12
2018-05-16T03:48:16.055Z,23.17
2018-05-16T03:50:42.381Z,28.73
2018-05-16T03:53:08.704Z,23.67
2018-05-16T03:55:35.037Z,24.85
2018-05-16T03:58:28.401Z,22.98
2018-05-16T04:01:13.123Z,26.05
2018-05-16T04:03:58.753Z,23.15
2018-05-16T04:06:25.098Z,22.95
2018-05-16T04:08:51.438Z,23.55
2018-05-16T04:11:17.819Z,26.45
2018-05-16T04:13:44.176Z,31.55
2018-05-16T04:16:10.513Z,28.20
2018-05-16T04:18:36.827Z,26.67
2018-05-16T04:21:03.141Z,31.70
2018-05-16T04:23:29.460Z,31.58
2018-05-16T04:25:55.772Z,36.50
2018-05-16T04:28:22.850Z,32.47
2018-05-16T04:30:49.159Z,29.65
2018-05-16T04:33:15.517Z,36.85
2018-05-16T04:35:41.835Z,36.17
2018-05-16T04:38:08.163Z,28.98
2018-05-16T04:40:34.487Z,36.25
2018-05-16T04:43:00.776Z,33.72
2018-05-16T04:45:27.209Z,36.40
2018-05-16T04:47:53.529Z,36.58
2018-05-16T04:50:19.851Z,38.88
2018-05-16T04:52:46.262Z,34.05
2018-05-16T04:55:12.523Z,38.35
2018-05-16T04:57:38.844Z,30.05
2018-05-16T05:00:05.204Z,35.10
2018-05-16T05:02:32.533Z,32.15
2018-05-16T05:04:58.890Z,35.00
2018-05-16T05:07:25.983Z,36.80
2018-05-16T05:09:52.323Z,35.25
2018-05-16T05:12:18.680Z,30.55
2018-05-16T05:14:45.043Z,30.35
2018-05-16T05:17:11.362Z,32.00
2018-05-16T05:19:37.737Z,33.10
2018-05-16T05:22:04.061Z,30.60
2018-05-16T05:24:30.627Z,31.73
2018-05-16T05:26:56.965Z,24.60
2018-05-16T05:29:23.312Z,39.17
2018-05-16T05:31:50.391Z,30.08
2018-05-16T05:34:16.819Z,30.75
2018-05-16T05:36:43.200Z,27.90
2018-05-16T05:39:09.527Z,26.30
2018-05-16T05:41:35.865Z,34.13
2018-05-16T05:44:02.426Z,32.30
2018-05-16T05:46:28.755Z,29.40
2018-05-16T05:48:55.149Z,30.45
2018-05-16T05:51:21.537Z,40.90
2018-05-16T05:53:47.872Z,24.12
2018-05-16T05:56:14.202Z,27.45
2018-05-16T05:58:40.553Z,25.05
2018-05-16T06:01:06.899Z,18.80
2018-05-16T06:03:34.014Z,23.83
2018-05-16T06:06:00.361Z,24.12
2018-05-16T06:08:26.727Z,25.80
2018-05-16T06:10:53.072Z,22.20
2018-05-16T06:13:19.401Z,26.00
2018-05-16T06:15:45.792Z,24.65
2018-05-16T06:18:12.433Z,21.52
2018-05-16T06:20:39.591Z,26.05
2018-05-16T06:23:05.905Z,25.27
2018-05-16T06:25:32.242Z,22.02
2018-05-16T06:27:58.557Z,23.33
2018-05-16T06:30:24.896Z,23.48
2018-05-16T06:32:51.268Z,20.02
2018-05-16T06:35:17.549Z,18.35
2018-05-16T06:37:43.882Z,21.58
2018-05-16T06:40:10.238Z,16.67
2018-05-16T06:42:37.311Z,16.73
2018-05-16T06:45:03.653Z,20.55
2018-05-16T06:47:30.048Z,14.52
2018-05-16T06:49:56.503Z,12.05
2018-05-16T06:52:22.821Z,15.77
2018-05-16T06:54:49.133Z,15.98
2018-05-16T06:57:16.188Z,14.57
2018-05-16T06:59:43.322Z,13.70
2018-05-16T07:02:09.652Z,12.63
2018-05-16T07:04:35.989Z,10.65
2018-05-16T07:07:03.087Z,15.23
2018-05-16T07:09:29.476Z,11.07
2018-05-16T07:11:55.803Z,15.50
2018-05-16T07:14:22.863Z,14.20
2018-05-16T07:16:49.182Z,12.80
2018-05-16T07:19:16.251Z,15.95
2018-05-16T07:21:42.577Z,9.75
2018-05-16T07:24:08.902Z,8.60
2018-05-16T07:26:35.193Z,11.12
2018-05-16T07:29:02.302Z,10.05
2018-05-16T07:31:28.641Z,9.50
2018-05-16T07:33:55.324Z,12.65
2018-05-16T07:36:21.652Z,8.43
2018-05-16T07:38:48.708Z,7.07
2018-05-16T07:41:15.071Z,10.32
2018-05-16T07:43:41.380Z,7.20
2018-05-16T07:46:07.695Z,9.40
2018-05-16T07:48:34.031Z,10.57
2018-05-16T07:51:00.403Z,8.18
2018-05-16T07:53:26.780Z,9.55
2018-05-16T07:55:53.177Z,11.10
2018-05-16T07:58:19.435Z,8.63
2018-05-16T08:00:45.816Z,12.60
2018-05-16T08:03:12.145Z,10.75
2018-05-16T08:05:38.488Z,8.55
2018-05-16T08:08:04.837Z,10.63
2018-05-16T08:10:31.188Z,8.65
2018-05-16T08:12:57.499Z,8.88
2018-05-16T08:15:23.901Z,9.30
2018-05-16T08:17:50.224Z,10.05
2018-05-16T08:20:17.311Z,12.15
2018-05-16T08:25:17.408Z,16.50
2018-05-16T08:27:43.752Z,16.10
2018-05-16T08:30:10.089Z,13.52
2018-05-16T08:32:36.471Z,16.00
2018-05-16T08:35:02.876Z,17.87
2018-05-16T08:37:29.999Z,14.35
2018-05-16T08:39:56.319Z,8.93
2018-05-16T08:42:22.648Z,12.02
2018-05-16T08:44:48.978Z,7.95
2018-05-16T08:47:15.345Z,10.00
2018-05-16T08:49:42.432Z,12.82
2018-05-16T08:52:08.806Z,14.02
2018-05-16T08:54:35.129Z,10.73
2018-05-16T08:57:01.507Z,13.32
2018-05-16T08:59:27.893Z,12.05
2018-05-16T09:01:54.255Z,11.35
2018-05-16T09:04:20.620Z,12.75
2018-05-16T09:06:46.947Z,13.05
2018-05-16T09:09:13.338Z,14.07
2018-05-16T09:11:39.688Z,9.55
2018-05-16T09:14:06.017Z,10.30
2018-05-16T09:16:32.397Z,12.05
2018-05-16T09:18:59.482Z,13.57
2018-05-16T09:21:26.538Z,13.65
2018-05-16T09:23:52.863Z,14.57
2018-05-16T09:26:19.184Z,14.25
2018-05-16T09:28:45.521Z,14.68
2018-05-16T09:31:11.826Z,12.93
2018-05-16T09:33:38.931Z,21.25
2018-05-16T09:36:05.281Z,17.42
2018-05-16T09:38:31.648Z,15.23
2018-05-16T09:40:57.977Z,17.48
2018-05-16T09:43:24.372Z,16.00
2018-05-16T09:45:50.761Z,13.88
2018-05-16T09:48:17.784Z,17.55
2018-05-16T09:50:44.116Z,16.55
2018-05-16T09:53:10.476Z,16.95
2018-05-16T09:55:37.558Z,15.07
2018-05-16T09:58:03.971Z,12.88
2018-05-16T10:00:31.194Z,12.73
2018-05-16T10:02:57.563Z,15.50
2018-05-16T10:05:23.940Z,14.82
2018-05-16T10:07:57.275Z,14.35
2018-05-16T10:10:23.637Z,13.77
2018-05-16T10:12:50.711Z,19.83
2018-05-16T10:15:17.115Z,17.70
2018-05-16T10:17:44.200Z,12.32
2018-05-16T10:20:10.570Z,14.80
2018-05-16T10:22:36.960Z,12.60
2018-05-16T10:25:03.421Z,13.20
2018-05-16T10:27:29.755Z,13.88
2018-05-16T10:29:56.100Z,11.40
2018-05-16T10:32:22.411Z,12.93
2018-05-16T10:34:48.807Z,13.52
2018-05-16T10:37:15.130Z,15.13
2018-05-16T10:39:41.591Z,16.42
2018-05-16T10:42:07.972Z,14.07
2018-05-16T10:44:34.345Z,12.25
2018-05-16T10:47:01.564Z,16.10
2018-05-16T10:49:28.010Z,13.95
2018-05-16T10:51:54.316Z,12.20
2018-05-16T10:54:20.664Z,15.05
2018-05-16T10:56:47.028Z,15.07
2018-05-16T10:59:13.362Z,18.62
2018-05-16T11:01:39.836Z,16.67
2018-05-16T11:04:06.154Z,15.35
2018-05-16T11:06:33.332Z,16.37
2018-05-16T11:08:59.666Z,16.35
2018-05-16T11:11:26.036Z,15.80
2018-05-16T11:13:52.420Z,18.60
2018-05-16T11:16:18.775Z,16.08
2018-05-16T11:18:45.139Z,14.55
2018-05-16T11:21:12.262Z,15.30
2018-05-16T11:23:38.597Z,15.20
2018-05-16T11:26:04.978Z,14.20
2018-05-16T11:28:31.325Z,14.38
2018-05-16T11:30:57.657Z,13.85
2018-05-16T11:33:23.989Z,11.90
2018-05-16T11:35:50.320Z,17.62
2018-05-16T11:38:16.684Z,7.72
2018-05-16T11:40:43.068Z,11.00
2018-05-16T11:43:10.189Z,7.37
2018-05-16T11:45:37.278Z,7.62
2018-05-16T11:48:03.637Z,10.27
2018-05-16T11:50:29.982Z,7.95
2018-05-16T11:52:57.032Z,8.25
2018-05-16T11:55:23.400Z,11.98
2018-05-16T11:57:49.725Z,13.00
2018-05-16T12:00:16.099Z,12.82
2018-05-16T12:02:42.546Z,12.73
2018-05-16T12:05:08.860Z,12.88
2018-05-16T12:07:35.220Z,14.18
2018-05-16T12:10:02.444Z,16.08
2018-05-16T12:12:28.783Z,10.40
2018-05-16T12:14:55.216Z,9.68
2018-05-16T12:17:21.484Z,9.50
2018-05-16T12:19:47.834Z,13.57
2018-05-16T12:22:14.215Z,11.43
2018-05-16T12:24:41.331Z,13.18
2018-05-16T12:27:07.763Z,8.73
2018-05-16T12:29:34.147Z,12.25
2018-05-16T12:32:00.564Z,8.80
2018-05-16T12:34:27.135Z,11.60
2018-05-16T12:36:53.541Z,9.55
2018-05-16T12:39:19.877Z,9.50
2018-05-16T12:41:46.302Z,5.60
2018-05-16T12:44:12.672Z,5.87
2018-05-16T12:46:39.154Z,7.28
2018-05-16T12:49:05.397Z,7.93
2018-05-16T12:51:31.802Z,5.40
2018-05-16T12:53:58.745Z,7.75
2018-05-16T12:56:25.106Z,7.05
2018-05-16T12:58:51.533Z,7.90
2018-05-16T13:01:17.885Z,6.68
2018-05-16T13:03:44.291Z,6.12
2018-05-16T13:06:10.673Z,7.62
2018-05-16T13:08:37.119Z,9.88
2018-05-16T13:11:03.481Z,6.28
2018-05-16T13:13:29.869Z,11.82
2018-05-16T13:15:56.337Z,6.78
2018-05-16T13:18:23.502Z,8.90
2018-05-16T13:20:49.885Z,5.85
2018-05-16T13:23:16.217Z,5.53
2018-05-16T13:25:42.604Z,8.73
2018-05-16T13:28:08.981Z,7.57
2018-05-16T13:30:36.225Z,5.62
2018-05-16T13:33:02.548Z,7.60
2018-05-16T13:35:28.913Z,8.50
2018-05-16T13:37:55.290Z,7.00
2018-05-16T13:40:21.692Z,4.82
2018-05-16T13:42:48.051Z,5.00
2018-05-16T13:45:14.386Z,7.60
2018-05-16T13:47:40.773Z,4.00
2018-05-16T13:50:07.157Z,5.90
2018-05-16T13:52:33.534Z,4.33
2018-05-16T13:54:59.912Z,4.97
2018-05-16T13:57:26.249Z,3.93
2018-05-16T13:59:52.588Z,4.87
2018-05-16T14:02:19.052Z,3.63
2018-05-16T14:04:45.379Z,4.90
2018-05-16T14:07:12.548Z,4.47
2018-05-16T14:09:38.884Z,3.43
2018-05-16T14:12:05.288Z,4.03
2018-05-16T14:14:31.624Z,8.90
2018-05-16T14:16:58.261Z,2.70
2018-05-16T14:19:24.608Z,7.03
2018-05-16T14:21:51.762Z,4.95
2018-05-16T14:24:18.128Z,4.37
2018-05-16T14:26:44.507Z,4.20
2018-05-16T14:29:10.926Z,4.03
2018-05-16T14:31:44.268Z,5.67
2018-05-16T14:34:17.473Z,5.43
2018-05-16T14:36:43.839Z,4.67
2018-05-16T14:39:10.248Z,10.13
2018-05-16T14:41:37.376Z,7.77
2018-05-16T14:44:03.819Z,5.77
2018-05-16T14:46:30.264Z,5.18
2018-05-16T14:48:56.679Z,5.37
2018-05-16T14:51:22.997Z,7.63
2018-05-16T14:53:49.383Z,5.40
2018-05-16T14:56:15.809Z,4.73
2018-05-16T14:58:42.217Z,8.07
2018-05-16T15:01:08.583Z,7.10
2018-05-16T15:03:34.966Z,7.28
2018-05-16T15:06:01.326Z,5.85
2018-05-16T15:08:28.525Z,4.62
2018-05-16T15:10:54.920Z,4.62
2018-05-16T15:13:21.300Z,6.82
2018-05-16T15:15:48.566Z,6.10
2018-05-16T15:18:14.985Z,10.90
2018-05-16T15:20:42.010Z,7.78
2018-05-16T15:23:08.383Z,5.78
2018-05-16T15:25:35.521Z,7.35
2018-05-16T15:28:01.938Z,8.93
2018-05-16T15:30:28.353Z,14.60
2018-05-16T15:32:54.789Z,8.02
2018-05-16T15:35:22.113Z,9.25
2018-05-16T15:37:48.419Z,12.35
2018-05-16T15:40:14.777Z,9.95
2018-05-16T15:42:41.146Z,9.93
2018-05-16T15:45:09.459Z,10.50
2018-05-16T15:47:35.875Z,9.52
2018-05-16T15:50:03.143Z,9.55
2018-05-16T15:52:29.461Z,9.15
2018-05-16T15:54:55.918Z,10.52
2018-05-16T15:57:22.376Z,9.82
2018-05-16T15:59:49.308Z,9.02
2018-05-16T16:02:15.634Z,14.30
2018-05-16T16:04:42.102Z,13.27
2018-05-16T16:07:08.589Z,11.90
2018-05-16T16:09:35.009Z,10.77
2018-05-16T16:12:01.391Z,10.07
2018-05-16T16:14:27.856Z,11.65
2018-05-16T16:16:54.308Z,8.70
2018-05-16T16:19:20.717Z,16.95
2018-05-16T16:21:47.095Z,27.35
2018-05-16T16:24:13.492Z,9.75
2018-05-16T16:26:39.901Z,8.55
2018-05-16T16:29:06.454Z,10.00
2018-05-16T16:31:32.889Z,8.32
2018-05-16T16:33:59.399Z,10.25
2018-05-16T16:36:26.570Z,8.75
2018-05-16T16:38:52.988Z,8.88
2018-05-16T16:41:20.281Z,9.80
2018-05-16T16:43:46.765Z,8.25
2018-05-16T16:46:13.973Z,11.23
2018-05-16T16:48:41.856Z,9.70
2018-05-16T16:51:08.257Z,15.05
2018-05-16T16:53:34.638Z,8.75
2018-05-16T16:56:01.043Z,8.52
2018-05-16T16:58:27.442Z,9.88
2018-05-16T17:00:53.807Z,9.55
2018-05-16T17:03:20.217Z,13.15
2018-05-16T17:05:46.618Z,9.82
2018-05-16T17:08:13.109Z,9.95
2018-05-16T17:10:40.321Z,9.40
2018-05-16T17:13:06.698Z,7.90
2018-05-16T17:15:33.124Z,8.13
2018-05-16T17:17:59.564Z,9.80
2018-05-16T17:20:26.641Z,8.75
2018-05-16T17:22:53.017Z,9.02
2018-05-16T17:25:19.374Z,7.78
2018-05-16T17:27:46.579Z,8.77
2018-05-16T17:30:12.961Z,9.30
2018-05-16T17:32:40.166Z,9.52
2018-05-16T17:35:06.590Z,8.05
2018-05-16T17:37:32.979Z,9.38
2018-05-16T17:40:00.149Z,8.52
2018-05-16T17:42:26.516Z,8.88
2018-05-16T17:44:52.896Z,9.48
2018-05-16T17:47:19.536Z,10.18
2018-05-16T17:49:45.987Z,12.45
2018-05-16T17:52:13.098Z,10.07
2018-05-16T17:54:39.486Z,13.32
2018-05-16T17:57:05.899Z,10.13
2018-05-16T17:59:32.373Z,12.07
2018-05-16T18:01:58.757Z,10.82
2018-05-16T18:04:25.983Z,10.20
2018-05-16T18:06:52.393Z,13.13
2018-05-16T18:09:19.583Z,11.30
2018-05-16T18:11:45.899Z,11.32
2018-05-16T18:14:24.563Z,10.15
2018-05-16T18:17:15.153Z,12.63
2018-05-16T18:19:41.552Z,10.88
2018-05-16T18:22:07.991Z,11.05
2018-05-16T18:24:34.438Z,10.55
2018-05-16T18:27:00.795Z,11.85
2018-05-16T18:29:27.152Z,9.88
2018-05-16T18:31:54.293Z,13.98
2018-05-16T18:34:21.417Z,11.45
2018-05-16T18:36:47.827Z,10.25
2018-05-16T18:39:14.255Z,14.02
2018-05-16T18:41:40.676Z,10.15
2018-05-16T18:44:07.078Z,11.32
2018-05-16T18:46:34.305Z,13.02
2018-05-16T18:49:00.769Z,10.23
2018-05-16T18:51:27.187Z,9.70
2018-05-16T18:53:53.680Z,10.55
2018-05-16T18:56:20.137Z,9.00
2018-05-16T18:58:46.526Z,9.73
2018-05-16T19:01:12.959Z,13.13
2018-05-16T19:03:39.341Z,15.27
2018-05-16T19:06:06.632Z,13.00
2018-05-16T19:08:33.020Z,10.32
2018-05-16T19:10:59.425Z,8.90
2018-05-16T19:13:25.820Z,10.57
2018-05-16T19:15:52.228Z,13.55
2018-05-16T19:20:53.473Z,14.27
2018-05-16T19:23:19.894Z,10.00
2018-05-16T19:25:46.265Z,10.55
2018-05-16T19:28:12.677Z,10.48
2018-05-16T19:30:39.817Z,9.77
2018-05-16T19:33:06.936Z,10.20
2018-05-16T19:35:33.413Z,11.90
2018-05-16T19:38:00.577Z,10.90
2018-05-16T19:40:27.037Z,9.90
2018-05-16T19:43:00.622Z,9.30
2018-05-16T19:45:28.639Z,13.13
2018-05-16T19:47:56.693Z,11.15
2018-05-16T19:50:32.886Z,10.45
2018-05-16T19:53:01.022Z,13.52
2018-05-16T19:55:28.182Z,13.55
2018-05-16T19:57:54.598Z,11.00
2018-05-16T20:00:21.048Z,10.55
2018-05-16T20:02:47.461Z,10.25
2018-05-16T20:07:48.545Z,11.93
2018-05-16T20:10:14.984Z,8.27
2018-05-16T20:12:42.151Z,7.80
2018-05-16T20:15:09.549Z,9.52
2018-05-16T20:17:37.544Z,9.68
2018-05-16T20:20:04.581Z,11.95
2018-05-16T20:22:30.972Z,10.25
2018-05-16T20:24:57.391Z,9.35
2018-05-16T20:27:23.722Z,9.57
2018-05-16T20:29:50.242Z,8.55
2018-05-16T20:32:16.649Z,10.00
2018-05-16T20:34:43.049Z,10.18
2018-05-16T20:37:09.437Z,6.82
2018-05-16T20:39:35.848Z,8.95
2018-05-16T20:42:03.055Z,9.68
2018-05-16T20:44:30.410Z,8.05
2018-05-16T20:46:56.809Z,11.32
2018-05-16T20:49:23.162Z,9.48
2018-05-16T20:51:49.552Z,13.30
2018-05-16T20:54:16.709Z,8.30
2018-05-16T20:56:43.807Z,8.43
2018-05-16T20:59:10.193Z,9.70
2018-05-16T21:01:37.376Z,9.68
2018-05-16T21:04:03.757Z,9.00
2018-05-16T21:06:30.136Z,9.55
2018-05-16T21:08:56.569Z,8.20
2018-05-16T21:11:22.957Z,10.88
2018-05-16T21:13:50.117Z,8.65
2018-05-16T21:16:16.500Z,10.63
2018-05-16T21:18:42.844Z,9.55
2018-05-16T21:21:09.288Z,6.62
2018-05-16T21:23:36.446Z,8.40
2018-05-16T21:26:03.562Z,13.15
2018-05-16T21:28:30.739Z,12.07
2018-05-16T21:30:57.111Z,15.85
2018-05-16T21:33:23.496Z,13.10
2018-05-16T21:35:50.611Z,10.32
2018-05-16T21:38:17.064Z,12.80
2018-05-16T21:40:43.429Z,11.20
2018-05-16T21:43:09.775Z,16.10
2018-05-16T21:45:36.937Z,11.68
2018-05-16T21:48:03.294Z,10.27
2018-05-16T21:50:29.684Z,10.70
2018-05-16T21:53:04.318Z,11.35
2018-05-16T21:55:31.534Z,10.15
2018-05-16T21:57:57.849Z,10.38
2018-05-16T22:00:25.006Z,14.35
2018-05-16T22:02:52.146Z,12.32
2018-05-16T22:05:19.329Z,10.98
2018-05-16T22:07:45.681Z,12.23
2018-05-16T22:10:12.083Z,12.48
2018-05-16T22:12:38.525Z,12.93
2018-05-16T22:15:04.940Z,11.30
2018-05-16T22:17:31.312Z,10.02
2018-05-16T22:19:57.683Z,10.75
2018-05-16T22:22:24.779Z,11.02
2018-05-16T22:24:51.887Z,13.50
2018-05-16T22:27:18.253Z,13.48
2018-05-16T22:29:44.580Z,12.18
2018-05-16T22:32:17.099Z,9.80
2018-05-16T22:34:50.099Z,12.35
2018-05-16T22:37:22.586Z,12.43
2018-05-16T22:39:54.893Z,9.98
2018-05-16T22:42:27.310Z,11.80
2018-05-16T22:44:59.608Z,16.23
2018-05-16T22:47:25.964Z,10.93
2018-05-16T22:49:52.311Z,11.82
2018-05-16T22:52:18.718Z,9.27
2018-05-16T22:54:45.031Z,13.77
2018-05-16T22:57:11.391Z,11.85
2018-05-16T22:59:37.773Z,10.75
2018-05-16T23:02:04.103Z,18.87
2018-05-16T23:04:30.457Z,15.95
2018-05-16T23:06:56.813Z,14.45
2018-05-16T23:09:23.168Z,16.48
2018-05-16T23:11:50.216Z,15.40
2018-05-16T23:14:26.528Z,16.23
2018-05-16T23:16:52.853Z,15.38
2018-05-16T23:19:19.268Z,18.12
2018-05-16T23:21:45.639Z,16.73
2018-05-16T23:24:12.085Z,19.02
2018-05-16T23:26:39.189Z,15.52
2018-05-16T23:29:05.600Z,16.23
2018-05-16T23:31:31.995Z,14.35
2018-05-16T23:33:58.333Z,20.30
2018-05-16T23:36:24.687Z,16.52
2018-05-16T23:38:51.016Z,15.63
2018-05-16T23:41:17.373Z,21.50
2018-05-16T23:43:43.723Z,16.27
2018-05-16T23:46:10.094Z,18.08
2018-05-16T23:48:37.140Z,14.52
2018-05-16T23:51:04.323Z,17.00
2018-05-16T23:53:30.688Z,17.08
2018-05-16T23:55:57.069Z,14.02
2018-05-16T23:58:23.409Z,17.77
